createdAt,value
2018-05-04T00:01:51.781Z,76.90
2018-05-04T00:06:53.154Z,77.50
2018-05-04T00:11:54.457Z,77.50
2018-05-04T00:16:55.774Z,77.30
2018-05-04T00:21:57.123Z,76.80
2018-05-04T00:26:59.551Z,76.80
2018-05-04T00:32:01.748Z,77.50
2018-05-04T00:37:03.004Z,78.00
2018-05-04T00:42:06.075Z,77.70
2018-05-04T00:47:09.378Z,77.70
2018-05-04T00:52:11.674Z,78.10
2018-05-04T00:57:15.010Z,79.30
2018-05-04T01:02:16.344Z,79.30
2018-05-04T01:07:18.648Z,79.50
2018-05-04T01:12:21.770Z,80.30
2018-05-04T01:17:24.154Z,80.40
2018-05-04T01:22:25.636Z,79.60
2018-05-04T01:27:27.177Z,79.90
2018-05-04T01:32:29.351Z,79.40
2018-05-04T01:37:31.508Z,79.00
2018-05-04T01:42:33.002Z,78.90
2018-05-04T01:47:36.174Z,78.60
2018-05-04T01:52:38.394Z,78.70
2018-05-04T01:57:39.843Z,78.70
2018-05-04T02:02:41.318Z,79.70
2018-05-04T02:07:45.527Z,80.20
2018-05-04T02:12:47.899Z,80.10
2018-05-04T02:17:49.182Z,80.40
2018-05-04T02:22:50.543Z,80.50
2018-05-04T02:27:51.903Z,80.20
2018-05-04T02:32:53.268Z,79.60
2018-05-04T02:37:54.636Z,79.60
2018-05-04T02:42:56.015Z,80.40
2018-05-04T02:47:58.157Z,80.10
2018-05-04T02:52:59.490Z,80.00
2018-05-04T02:58:00.778Z,80.20
2018-05-04T03:03:02.812Z,79.60
2018-05-04T03:08:05.179Z,79.70
2018-05-04T03:13:06.530Z,79.30
2018-05-04T03:18:07.945Z,78.00
2018-05-04T03:23:09.290Z,77.50
2018-05-04T03:28:10.701Z,79.00
2018-05-04T03:33:12.049Z,80.00
2018-05-04T03:38:13.403Z,80.20
2018-05-04T03:43:14.694Z,80.60
2018-05-04T03:48:17.995Z,80.30
2018-05-04T03:53:20.386Z,80.00
2018-05-04T03:58:33.977Z,79.40
2018-05-04T04:03:47.703Z,77.70
2018-05-04T04:08:49.053Z,76.20
2018-05-04T04:13:51.381Z,76.90
2018-05-04T04:18:54.486Z,79.50
2018-05-04T04:23:57.555Z,79.70
2018-05-04T04:28:59.063Z,79.80
2018-05-04T04:34:00.482Z,79.50
2018-05-04T04:39:02.930Z,78.10
2018-05-04T04:44:05.410Z,78.80
2018-05-04T04:49:08.549Z,74.60
2018-05-04T04:54:09.952Z,74.60
2018-05-04T04:59:11.406Z,70.90
2018-05-04T05:04:13.905Z,64.30
2018-05-04T05:09:16.054Z,58.00
2018-05-04T05:14:17.438Z,58.00
2018-05-04T05:19:18.906Z,54.70
2018-05-04T05:24:22.338Z,53.40
2018-05-04T05:29:24.473Z,50.30
2018-05-04T05:34:26.849Z,50.00
2018-05-04T05:39:33.573Z,47.70
2018-05-04T05:44:34.916Z,43.60
2018-05-04T05:49:36.255Z,41.40
2018-05-04T05:54:37.708Z,43.50
2018-05-04T05:59:40.855Z,49.30
2018-05-04T06:04:42.339Z,49.30
2018-05-04T06:09:43.812Z,50.70
2018-05-04T06:14:45.359Z,47.80
2018-05-04T06:19:47.728Z,40.60
2018-05-04T06:24:50.874Z,39.80
2018-05-04T06:29:54.206Z,41.90
2018-05-04T06:34:57.293Z,40.90
2018-05-04T06:39:59.366Z,41.40
2018-05-04T06:45:02.750Z,41.40
2018-05-04T06:50:06.155Z,40.90
2018-05-04T06:55:07.523Z,40.00
2018-05-04T07:00:08.920Z,39.20
2018-05-04T07:05:11.107Z,38.40
2018-05-04T07:10:13.242Z,39.80
2018-05-04T07:15:14.626Z,39.70
2018-05-04T07:20:16.081Z,41.90
2018-05-04T07:25:18.501Z,42.60
2018-05-04T07:30:19.828Z,43.10
2018-05-04T07:35:22.134Z,44.10
2018-05-04T07:40:24.473Z,42.30
2018-05-04T07:45:26.938Z,42.70
2018-05-04T07:50:29.442Z,42.50
2018-05-04T07:55:30.926Z,41.20
2018-05-04T08:00:32.317Z,42.20
2018-05-04T08:05:33.758Z,40.60
2018-05-04T08:10:35.124Z,40.70
2018-05-04T08:15:36.452Z,41.70
2018-05-04T08:20:38.903Z,41.10
2018-05-04T08:25:40.260Z,41.90
2018-05-04T08:30:42.621Z,40.70
2018-05-04T08:35:45.001Z,38.80
2018-05-04T08:40:46.440Z,39.00
2018-05-04T08:45:47.677Z,40.00
2018-05-04T08:50:49.879Z,38.70
2018-05-04T08:55:53.165Z,38.40
2018-05-04T09:00:55.475Z,39.40
2018-05-04T09:05:58.798Z,38.60
2018-05-04T09:11:00.141Z,38.30
2018-05-04T09:16:01.440Z,38.10
2018-05-04T09:21:03.489Z,39.30
2018-05-04T09:26:04.822Z,39.20
2018-05-04T09:31:06.063Z,37.40
2018-05-04T09:36:07.353Z,36.80
2018-05-04T09:41:08.678Z,39.00
2018-05-04T09:46:09.980Z,37.10
2018-05-04T09:51:12.359Z,38.20
2018-05-04T09:56:14.861Z,38.60
2018-05-04T10:01:16.198Z,36.00
2018-05-04T10:06:17.643Z,35.60
2018-05-04T10:11:20.023Z,36.70
2018-05-04T10:16:21.482Z,35.90
2018-05-04T10:21:23.733Z,36.10
2018-05-04T10:26:25.874Z,34.90
2018-05-04T10:31:29.337Z,34.80
2018-05-04T10:36:30.592Z,35.90
2018-05-04T10:41:32.837Z,35.50
2018-05-04T10:46:34.360Z,35.50
2018-05-04T10:51:35.872Z,34.60
2018-05-04T10:56:37.389Z,33.80
2018-05-04T11:01:38.893Z,36.10
2018-05-04T11:06:40.318Z,36.00
2018-05-04T11:11:41.780Z,36.40
2018-05-04T11:16:43.745Z,36.50
2018-05-04T11:21:46.911Z,37.50
2018-05-04T11:26:50.163Z,37.50
2018-05-04T11:31:52.382Z,36.20
2018-05-04T11:36:53.770Z,36.20
2018-05-04T11:41:55.338Z,34.80
2018-05-04T11:46:57.670Z,35.70
2018-05-04T11:51:59.113Z,36.30
2018-05-04T11:57:00.486Z,33.80
2018-05-04T12:02:01.886Z,35.60
2018-05-04T12:07:05.276Z,37.40
2018-05-04T12:12:06.576Z,35.40
2018-05-04T12:17:07.855Z,35.10
2018-05-04T12:22:09.131Z,36.30
2018-05-04T12:27:10.557Z,35.10
2018-05-04T12:32:12.941Z,35.60
2018-05-04T12:37:14.358Z,35.40
2018-05-04T12:42:16.699Z,35.90
2018-05-04T12:47:18.270Z,35.40
2018-05-04T12:52:19.635Z,35.60
2018-05-04T12:57:21.091Z,36.90
2018-05-04T13:02:22.555Z,35.50
2018-05-04T13:07:23.933Z,35.00
2018-05-04T13:12:26.447Z,35.20
2018-05-04T13:17:28.727Z,33.10
2018-05-04T13:22:31.095Z,33.00
2018-05-04T13:27:32.569Z,34.60
2018-05-04T13:32:34.150Z,34.90
2018-05-04T13:37:35.658Z,34.90
2018-05-04T13:42:37.331Z,34.40
2018-05-04T13:47:39.314Z,33.70
2018-05-04T13:52:41.672Z,33.10
2018-05-04T13:57:43.801Z,32.00
2018-05-04T14:02:45.369Z,31.20
2018-05-04T14:07:46.810Z,30.30
2018-05-04T14:12:48.349Z,30.90
2018-05-04T14:17:51.721Z,29.70
2018-05-04T14:22:53.077Z,30.30
2018-05-04T14:27:55.586Z,30.00
2018-05-04T14:32:57.367Z,29.40
2018-05-04T14:38:00.561Z,30.70
2018-05-04T14:43:02.382Z,30.00
2018-05-04T14:48:05.683Z,30.00
2018-05-04T14:53:08.937Z,30.00
2018-05-04T14:58:10.355Z,30.00
2018-05-04T15:03:12.597Z,29.30
2018-05-04T15:08:14.112Z,29.00
2018-05-04T15:13:16.321Z,27.80
2018-05-04T15:18:18.659Z,27.80
2018-05-04T15:23:20.151Z,27.30
2018-05-04T15:28:21.655Z,27.30
2018-05-04T15:33:23.857Z,27.50
2018-05-04T15:38:26.181Z,27.40
2018-05-04T15:43:29.745Z,27.70
2018-05-04T15:48:37.058Z,27.60
2018-05-04T15:53:38.358Z,28.50
2018-05-04T15:58:41.633Z,28.50
2018-05-04T16:03:43.183Z,28.40
2018-05-04T16:08:44.498Z,29.00
2018-05-04T16:13:46.596Z,28.70
2018-05-04T16:18:48.066Z,28.60
2018-05-04T16:23:50.455Z,29.20
2018-05-04T16:28:51.878Z,28.90
2018-05-04T16:33:54.020Z,28.80
2018-05-04T16:38:55.425Z,28.70
2018-05-04T16:43:58.625Z,28.70
2018-05-04T16:49:07.114Z,28.50
2018-05-04T16:54:08.511Z,28.40
2018-05-04T16:59:11.913Z,29.70
2018-05-04T17:04:13.394Z,30.00
2018-05-04T17:09:15.782Z,29.70
2018-05-04T17:14:17.188Z,29.50
2018-05-04T17:19:18.698Z,29.60
2018-05-04T17:24:21.061Z,29.90
2018-05-04T17:29:24.430Z,29.90
2018-05-04T17:34:27.676Z,30.60
2018-05-04T17:39:29.052Z,30.60
2018-05-04T17:44:31.350Z,31.30
2018-05-04T17:49:32.745Z,31.80
2018-05-04T17:54:35.143Z,32.20
2018-05-04T17:59:39.234Z,32.50
2018-05-04T18:04:41.112Z,32.40
2018-05-04T18:09:42.420Z,34.40
2018-05-04T18:14:43.833Z,35.30
2018-05-04T18:19:45.366Z,35.80
2018-05-04T18:24:46.696Z,36.70
2018-05-04T18:29:49.781Z,38.80
2018-05-04T18:34:51.138Z,38.80
2018-05-04T18:39:53.422Z,40.00
2018-05-04T18:44:55.771Z,41.20
2018-05-04T18:49:57.060Z,42.80
2018-05-04T18:54:59.506Z,44.50
2018-05-04T19:00:01.923Z,45.60
2018-05-04T19:05:04.253Z,47.00
2018-05-04T19:10:05.705Z,46.90
2018-05-04T19:15:07.978Z,49.00
2018-05-04T19:20:09.338Z,49.30
2018-05-04T19:25:10.712Z,50.10
2018-05-04T19:30:15.580Z,51.50
2018-05-04T19:35:21.631Z,56.20
2018-05-04T19:40:23.049Z,56.20
2018-05-04T19:45:24.428Z,57.90
2018-05-04T19:50:26.726Z,59.60
2018-05-04T19:55:29.142Z,59.60
2018-05-04T20:00:30.789Z,60.40
2018-05-04T20:05:32.279Z,61.80
2018-05-04T20:10:33.669Z,62.90
2018-05-04T20:15:39.335Z,63.50
2018-05-04T20:20:40.822Z,64.50
2018-05-04T20:25:42.111Z,64.50
2018-05-04T20:30:43.472Z,64.50
2018-05-04T20:35:45.861Z,64.00
2018-05-04T20:40:47.307Z,64.40
2018-05-04T20:45:48.635Z,65.00
2018-05-04T20:50:51.739Z,65.40
2018-05-04T20:55:53.714Z,65.10
2018-05-04T21:00:55.042Z,65.10
2018-05-04T21:05:57.524Z,65.70
2018-05-04T21:10:58.834Z,66.10
2018-05-04T21:16:00.190Z,67.30
2018-05-04T21:21:02.303Z,65.90
2018-05-04T21:26:06.899Z,65.80
2018-05-04T21:31:08.353Z,63.80
2018-05-04T21:36:09.751Z,63.70
2018-05-04T21:41:11.133Z,64.10
2018-05-04T21:46:13.473Z,64.90
2018-05-04T21:51:14.870Z,65.60
2018-05-04T21:56:18.053Z,68.90
2018-05-04T22:01:19.553Z,68.80
2018-05-04T22:06:21.012Z,69.70
2018-05-04T22:11:22.453Z,69.80
2018-05-04T22:16:24.747Z,71.00
2018-05-04T22:21:27.052Z,71.00
2018-05-04T22:26:32.449Z,71.60
2018-05-04T22:31:33.735Z,72.50
2018-05-04T22:36:35.775Z,72.80
2018-05-04T22:41:37.108Z,72.90
2018-05-04T22:46:39.425Z,73.30
2018-05-04T22:51:42.735Z,74.20
2018-05-04T22:56:45.117Z,74.60
2018-05-04T23:01:46.490Z,74.80
2018-05-04T23:06:48.275Z,75.00
2018-05-04T23:11:50.382Z,74.80
2018-05-04T23:16:52.263Z,74.90
2018-05-04T23:21:54.698Z,74.80
2018-05-04T23:26:57.614Z,75.90
2018-05-04T23:31:59.799Z,76.10
2018-05-04T23:37:01.482Z,76.10
2018-05-04T23:42:03.665Z,75.30
2018-05-04T23:47:05.971Z,74.70
2018-05-04T23:52:08.059Z,74.40
2018-05-04T23:57:10.499Z,74.50
